createdAt,value
2022-09-05T00:00:27.607Z,5.05
2022-09-05T00:03:20.706Z,4.83
2022-09-05T00:06:06.278Z,4.42
2022-09-05T00:09:23.727Z,4.40
2022-09-05T00:12:02.859Z,4.83
2022-09-05T00:15:17.055Z,4.33
2022-09-05T00:22:33.181Z,4.75
2022-09-05T00:24:33.159Z,4.53
2022-09-05T00:24:34.359Z,4.47
2022-09-05T00:27:14.281Z,4.70
2022-09-05T00:31:07.326Z,4.53
2022-09-05T00:33:17.469Z,4.67
2022-09-05T00:36:11.602Z,4.20
2022-09-05T00:38:46.726Z,4.37
2022-09-05T00:43:52.303Z,4.08
2022-09-05T00:46:32.081Z,3.90
2022-09-05T00:49:28.332Z,4.28
2022-09-05T00:52:11.631Z,4.25
2022-09-05T00:55:16.561Z,3.83
2022-09-05T00:58:22.826Z,4.20
2022-09-05T01:01:02.261Z,4.35
2022-09-05T01:03:44.488Z,3.67
2022-09-05T01:06:40.238Z,4.50
2022-09-05T01:09:36.776Z,4.80
2022-09-05T01:12:52.878Z,4.80
2022-09-05T01:15:33.688Z,4.58
2022-09-05T01:18:56.761Z,4.80
2022-09-05T01:22:07.467Z,3.90
2022-09-05T01:25:15.203Z,4.58
2022-09-05T01:29:16.895Z,4.80
2022-09-05T01:31:36.340Z,4.37
2022-09-05T01:34:44.014Z,4.37
2022-09-05T01:37:33.946Z,4.87
2022-09-05T01:40:31.823Z,5.12
2022-09-05T01:43:34.072Z,4.75
2022-09-05T01:46:47.427Z,5.85
2022-09-05T01:50:03.136Z,5.47
2022-09-05T01:53:00.169Z,5.50
2022-09-05T01:56:05.581Z,5.65
2022-09-05T01:59:10.123Z,5.15
2022-09-05T02:02:08.785Z,6.35
2022-09-05T02:05:09.843Z,5.30
2022-09-05T02:07:58.183Z,5.97
2022-09-05T02:11:06.026Z,5.95
2022-09-05T02:13:57.540Z,5.55
2022-09-05T02:16:44.054Z,5.15
2022-09-05T02:19:32.570Z,5.80
2022-09-05T02:22:13.540Z,5.30
2022-09-05T02:24:48.953Z,5.97
2022-09-05T02:28:04.331Z,5.87
2022-09-05T02:30:19.256Z,5.78
2022-09-05T02:33:09.733Z,7.17
2022-09-05T02:35:57.222Z,7.15
2022-09-05T02:44:13.860Z,8.28
2022-09-05T02:45:06.150Z,7.55
2022-09-05T02:45:10.436Z,7.72
2022-09-05T02:47:23.981Z,7.47
2022-09-05T02:54:40.219Z,7.70
2022-09-05T02:57:29.754Z,7.20
2022-09-05T02:59:10.105Z,8.28
2022-09-05T03:02:25.227Z,7.97
2022-09-05T03:04:55.452Z,8.55
2022-09-05T03:08:13.575Z,8.45
2022-09-05T03:11:07.173Z,9.18
2022-09-05T03:14:10.894Z,8.75
2022-09-05T03:17:28.559Z,10.03
2022-09-05T03:20:40.493Z,10.32
2022-09-05T03:23:43.781Z,9.68
2022-09-05T03:26:24.949Z,9.45
2022-09-05T03:29:40.987Z,9.53
2022-09-05T03:35:50.347Z,10.40
2022-09-05T03:38:51.861Z,10.65
2022-09-05T03:42:16.694Z,10.00
2022-09-05T03:45:36.711Z,10.43
2022-09-05T03:48:44.347Z,9.78
2022-09-05T03:57:04.803Z,10.35
2022-09-05T03:57:27.458Z,12.75
2022-09-05T03:57:42.727Z,11.20
2022-09-05T04:00:30.470Z,10.05
2022-09-05T04:08:06.107Z,11.65
2022-09-05T04:08:15.654Z,11.22
2022-09-05T04:09:51.950Z,11.30
2022-09-05T04:12:36.971Z,11.33
2022-09-05T04:18:17.807Z,10.85
2022-09-05T04:21:02.666Z,11.90
2022-09-05T04:24:00.747Z,10.78
2022-09-05T04:27:04.460Z,11.12
2022-09-05T04:30:27.615Z,10.35
2022-09-05T04:32:54.844Z,10.53
2022-09-05T04:35:41.793Z,11.50
2022-09-05T04:38:18.531Z,10.75
2022-09-05T04:41:05.471Z,9.90
2022-09-05T04:44:02.667Z,10.32
2022-09-05T04:46:51.334Z,10.23
2022-09-05T04:49:30.716Z,10.53
2022-09-05T04:52:31.006Z,9.90
2022-09-05T04:55:15.565Z,10.72
2022-09-05T04:58:09.733Z,10.25
2022-09-05T05:05:59.626Z,9.75
2022-09-05T05:06:10.498Z,9.68
2022-09-05T05:06:45.633Z,9.63
2022-09-05T05:09:29.320Z,10.95
2022-09-05T05:18:00.978Z,10.35
2022-09-05T05:18:09.264Z,12.30
2022-09-05T05:18:37.705Z,13.95
2022-09-05T05:21:06.124Z,14.13
2022-09-05T05:23:43.936Z,10.65
2022-09-05T05:26:33.187Z,11.20
2022-09-05T05:29:29.369Z,10.35
2022-09-05T05:32:03.562Z,10.30
2022-09-05T05:34:46.512Z,10.53
2022-09-05T05:37:41.205Z,10.93
2022-09-05T05:40:29.138Z,10.08
2022-09-05T05:43:26.292Z,11.38
2022-09-05T05:46:02.715Z,11.25
2022-09-05T05:48:42.184Z,10.72
2022-09-05T05:52:01.296Z,12.58
2022-09-05T05:55:24.341Z,12.98
2022-09-05T05:58:17.338Z,12.93
2022-09-05T06:01:03.583Z,16.73
2022-09-05T06:04:06.980Z,18.27
2022-09-05T06:07:02.803Z,18.17
2022-09-05T06:14:54.741Z,19.32
2022-09-05T06:15:02.949Z,30.82
2022-09-05T06:15:44.209Z,40.17
2022-09-05T06:18:49.765Z,38.48
2022-09-05T06:22:08.552Z,64.92
2022-09-05T06:24:27.515Z,117.10
2022-09-05T06:28:01.481Z,116.95
2022-09-05T06:30:23.074Z,111.20
2022-09-05T06:33:28.921Z,99.35
2022-09-05T06:36:33.406Z,81.28
2022-09-05T06:39:32.144Z,82.95
2022-09-05T06:42:42.878Z,77.35
2022-09-05T06:45:34.823Z,58.65
2022-09-05T06:48:30.529Z,83.90
2022-09-05T06:51:14.707Z,98.33
2022-09-05T06:54:32.637Z,107.00
2022-09-05T06:57:31.118Z,107.30
2022-09-05T07:00:22.889Z,106.45
2022-09-05T07:03:18.996Z,101.45
2022-09-05T07:06:25.343Z,97.92
2022-09-05T07:09:23.108Z,92.05
2022-09-05T07:12:20.261Z,88.87
2022-09-05T07:15:09.583Z,87.17
2022-09-05T07:18:19.163Z,87.20
2022-09-05T07:21:26.205Z,77.40
2022-09-05T07:24:53.408Z,70.57
2022-09-05T07:29:38.196Z,65.60
2022-09-05T07:32:11.939Z,66.97
2022-09-05T07:34:46.944Z,66.75
2022-09-05T07:37:24.851Z,59.27
2022-09-05T07:40:11.554Z,59.70
2022-09-05T07:42:46.126Z,58.17
2022-09-05T07:45:29.621Z,57.67
2022-09-05T07:48:35.085Z,54.98
2022-09-05T07:55:12.374Z,53.90
2022-09-05T07:56:51.340Z,50.55
2022-09-05T07:56:56.185Z,52.23
2022-09-05T07:58:52.505Z,49.65
2022-09-05T08:04:05.674Z,43.10
2022-09-05T08:07:11.999Z,41.48
2022-09-05T08:10:00.893Z,41.45
2022-09-05T08:12:01.028Z,41.35
2022-09-05T08:15:10.297Z,42.25
2022-09-05T08:18:32.732Z,39.03
2022-09-05T08:21:40.739Z,39.60
2022-09-05T08:24:30.509Z,39.35
2022-09-05T08:27:22.946Z,37.55
2022-09-05T08:30:24.635Z,36.23
2022-09-05T08:32:52.985Z,32.55
2022-09-05T08:35:44.410Z,35.58
2022-09-05T08:38:19.049Z,36.28
2022-09-05T08:46:35.435Z,29.98
2022-09-05T08:46:43.267Z,30.62
2022-09-05T08:49:32.276Z,30.90
2022-09-05T08:52:00.822Z,30.77
2022-09-05T08:55:04.371Z,29.92
2022-09-05T08:57:53.806Z,27.90
2022-09-05T09:00:31.394Z,24.07
2022-09-05T09:03:32.134Z,22.42
2022-09-05T09:06:19.548Z,20.37
2022-09-05T09:09:18.163Z,19.60
2022-09-05T09:12:19.242Z,20.37
2022-09-05T09:15:15.067Z,20.43
2022-09-05T09:18:10.749Z,19.98
2022-09-05T09:21:11.872Z,21.05
2022-09-05T09:23:52.392Z,19.40
2022-09-05T09:26:32.612Z,19.65
2022-09-05T09:29:13.782Z,19.42
2022-09-05T09:32:09.597Z,19.50
2022-09-05T09:34:58.385Z,19.95
2022-09-05T09:38:05.343Z,14.68
2022-09-05T09:41:01.128Z,14.70
2022-09-05T09:43:52.601Z,13.20
2022-09-05T09:46:44.609Z,8.43
2022-09-05T09:49:45.179Z,6.15
2022-09-05T09:52:56.658Z,5.95
2022-09-05T09:56:10.475Z,4.65
2022-09-05T09:58:54.610Z,5.33
2022-09-05T10:02:26.755Z,4.65
2022-09-05T10:10:34.568Z,3.60
2022-09-05T10:10:55.126Z,5.90
2022-09-05T10:11:37.662Z,6.45
2022-09-05T10:14:07.416Z,8.15
2022-09-05T10:17:08.298Z,8.78
2022-09-05T10:20:10.875Z,9.38
2022-09-05T10:23:28.800Z,13.50
2022-09-05T10:26:41.135Z,9.55
2022-09-05T10:29:37.629Z,8.33
2022-09-05T10:35:04.765Z,8.28
2022-09-05T10:35:13.965Z,7.75
2022-09-05T10:37:51.390Z,7.37
2022-09-05T10:40:25.825Z,7.58
2022-09-05T10:43:15.106Z,7.65
2022-09-05T10:46:01.767Z,7.90
2022-09-05T10:48:57.299Z,7.72
2022-09-05T10:51:38.018Z,8.05
2022-09-05T10:54:41.450Z,7.12
2022-09-05T10:57:40.196Z,7.22
2022-09-05T11:02:20.276Z,7.30
2022-09-05T11:03:23.668Z,5.92
2022-09-05T11:06:09.156Z,7.58
2022-09-05T11:08:56.380Z,5.67
2022-09-05T11:11:37.431Z,4.25
2022-09-05T11:14:39.595Z,3.42
2022-09-05T11:17:30.915Z,3.20
2022-09-05T11:20:35.420Z,3.83
2022-09-05T11:23:05.802Z,4.05
2022-09-05T11:25:41.360Z,3.25
2022-09-05T11:28:57.462Z,4.58
2022-09-05T11:31:20.635Z,1.70
2022-09-05T11:39:38.083Z,1.60
2022-09-05T11:39:51.796Z,1.57
2022-09-05T11:40:30.054Z,1.60
2022-09-05T11:42:50.238Z,1.80
2022-09-05T11:46:02.171Z,1.95
2022-09-05T11:48:55.501Z,1.70
2022-09-05T11:51:38.626Z,1.65
2022-09-05T11:54:26.884Z,3.58
2022-09-05T11:57:39.488Z,1.60
2022-09-05T12:00:35.777Z,7.22
2022-09-05T12:03:58.990Z,4.97
2022-09-05T12:06:31.263Z,3.20
2022-09-05T12:09:29.857Z,2.00
2022-09-05T12:12:41.685Z,12.90
2022-09-05T12:15:33.540Z,8.88
2022-09-05T12:18:31.081Z,8.90
2022-09-05T12:21:38.176Z,5.30
2022-09-05T12:25:16.418Z,3.40
2022-09-05T12:27:35.776Z,3.72
2022-09-05T12:29:51.192Z,3.20
2022-09-05T12:33:58.432Z,5.58
2022-09-05T12:36:07.914Z,3.22
2022-09-05T12:40:55.203Z,3.62
2022-09-05T12:41:35.733Z,43.63
2022-09-05T12:44:36.298Z,9.78
2022-09-05T12:46:24.301Z,5.95
2022-09-05T12:49:11.405Z,6.17
2022-09-05T12:51:48.693Z,4.87
2022-09-05T12:54:34.768Z,4.28
2022-09-05T13:00:26.305Z,3.47
2022-09-05T13:03:02.089Z,3.17
2022-09-05T13:03:29.118Z,3.00
2022-09-05T13:05:55.951Z,3.17
2022-09-05T13:08:36.627Z,3.37
2022-09-05T13:14:52.375Z,3.30
2022-09-05T13:14:58.315Z,3.47
2022-09-05T13:16:30.908Z,3.27
2022-09-05T13:19:36.899Z,2.90
2022-09-05T13:22:11.392Z,3.80
2022-09-05T13:27:29.824Z,8.88
2022-09-05T13:37:55.196Z,7.53
2022-09-05T13:38:01.425Z,9.63
2022-09-05T13:38:11.852Z,9.25
2022-09-05T13:38:47.507Z,9.88
2022-09-05T13:40:59.854Z,10.68
2022-09-05T13:43:38.565Z,9.63
2022-09-05T13:46:21.095Z,9.28
2022-09-05T13:51:43.391Z,7.87
2022-09-05T13:54:36.745Z,15.55
2022-09-05T13:57:32.239Z,11.38
2022-09-05T14:00:28.356Z,6.53
2022-09-05T14:03:31.015Z,6.60
2022-09-05T14:06:47.007Z,9.00
2022-09-05T14:09:45.871Z,15.10
2022-09-05T14:12:43.323Z,14.45
2022-09-05T14:15:52.362Z,18.32
2022-09-05T14:18:34.046Z,11.60
2022-09-05T14:21:20.065Z,12.13
2022-09-05T14:24:06.314Z,12.60
2022-09-05T14:27:00.830Z,11.43
2022-09-05T14:29:42.007Z,11.22
2022-09-05T14:37:41.898Z,11.75
2022-09-05T14:37:44.562Z,10.85
2022-09-05T14:38:19.354Z,12.35
2022-09-05T14:41:48.782Z,12.43
2022-09-05T14:44:32.194Z,10.05
2022-09-05T14:47:32.324Z,10.08
2022-09-05T14:50:06.525Z,10.30
2022-09-05T14:52:43.283Z,10.00
2022-09-05T15:02:42.723Z,9.23
2022-09-05T15:02:42.986Z,18.55
2022-09-05T15:05:45.045Z,20.15
2022-09-05T15:11:24.332Z,15.83
2022-09-05T15:12:16.664Z,18.62
2022-09-05T15:13:47.209Z,16.32
2022-09-05T15:16:22.007Z,11.55
2022-09-05T15:18:56.527Z,15.55
2022-09-05T15:21:35.148Z,14.98
2022-09-05T15:24:24.625Z,16.35
2022-09-05T15:27:00.718Z,17.12
2022-09-05T15:29:35.560Z,12.30
2022-09-05T15:32:23.803Z,9.35
2022-09-05T15:35:00.337Z,8.75
2022-09-05T15:37:43.503Z,8.60
2022-09-05T15:40:23.833Z,8.68
2022-09-05T15:43:02.234Z,11.38
2022-09-05T15:45:36.678Z,9.03
2022-09-05T15:48:26.077Z,7.78
2022-09-05T15:51:03.475Z,8.05
2022-09-05T15:53:39.956Z,11.93
2022-09-05T15:56:20.059Z,9.55
2022-09-05T15:58:57.063Z,9.68
2022-09-05T16:01:59.507Z,8.75
2022-09-05T16:08:17.048Z,8.20
2022-09-05T16:10:28.466Z,8.58
2022-09-05T16:10:50.978Z,9.65
2022-09-05T16:12:19.355Z,9.55
2022-09-05T16:16:40.423Z,9.93
2022-09-05T16:23:17.071Z,10.85
2022-09-05T16:23:24.935Z,10.70
2022-09-05T16:23:39.574Z,11.90
2022-09-05T16:26:04.181Z,11.00
2022-09-05T16:28:49.252Z,11.38
2022-09-05T16:31:43.868Z,11.25
2022-09-05T16:34:39.955Z,13.35
2022-09-05T16:37:26.775Z,12.82
2022-09-05T16:40:29.574Z,14.47
2022-09-05T16:43:28.929Z,13.72
2022-09-05T16:46:33.821Z,13.30
2022-09-05T16:49:43.339Z,13.43
2022-09-05T16:52:17.207Z,13.95
2022-09-05T16:54:53.304Z,14.50
2022-09-05T16:57:36.641Z,13.72
2022-09-05T17:00:31.492Z,16.27
2022-09-05T17:03:40.905Z,15.58
2022-09-05T17:06:53.268Z,14.55
2022-09-05T17:09:30.513Z,14.15
2022-09-05T17:12:05.908Z,14.70
2022-09-05T17:14:44.191Z,15.18
2022-09-05T17:18:19.063Z,18.50
2022-09-05T17:20:06.980Z,20.50
2022-09-05T17:29:17.192Z,14.07
2022-09-05T17:29:25.567Z,14.68
2022-09-05T17:29:47.363Z,15.65
2022-09-05T17:31:51.744Z,16.37
2022-09-05T17:33:45.248Z,30.77
2022-09-05T17:36:51.163Z,16.97
2022-09-05T17:39:44.947Z,14.50
2022-09-05T17:42:43.855Z,12.80
2022-09-05T17:45:30.749Z,9.20
2022-09-05T17:48:03.899Z,9.35
2022-09-05T17:51:05.641Z,8.33
2022-09-05T17:54:04.707Z,10.85
2022-09-05T17:56:46.911Z,7.40
2022-09-05T17:59:25.293Z,6.80
2022-09-05T18:02:10.742Z,5.67
2022-09-05T18:04:52.568Z,6.17
2022-09-05T18:07:33.412Z,4.85
2022-09-05T18:10:15.029Z,4.95
2022-09-05T18:13:12.562Z,4.58
2022-09-05T18:15:35.742Z,4.60
2022-09-05T18:18:16.902Z,3.72
2022-09-05T18:20:55.784Z,3.62
2022-09-05T18:23:46.687Z,2.98
2022-09-05T18:26:25.328Z,3.47
2022-09-05T18:29:57.878Z,3.60
2022-09-05T18:32:05.890Z,2.62
2022-09-05T18:34:43.426Z,3.12
2022-09-05T18:37:41.618Z,3.15
2022-09-05T18:40:39.597Z,2.70
2022-09-05T18:43:42.353Z,2.15
2022-09-05T18:46:33.791Z,2.65
2022-09-05T18:50:22.064Z,2.02
2022-09-05T18:52:23.695Z,2.12
2022-09-05T18:56:09.629Z,1.92
2022-09-05T18:57:38.394Z,1.70
2022-09-05T19:00:15.223Z,3.35
2022-09-05T19:02:58.976Z,2.58
2022-09-05T19:06:34.866Z,2.12
2022-09-05T19:08:40.884Z,1.70
2022-09-05T19:11:27.705Z,3.98
2022-09-05T19:14:08.101Z,4.85
2022-09-05T19:16:44.067Z,21.55
2022-09-05T19:19:24.428Z,3.37
2022-09-05T19:22:39.602Z,12.98
2022-09-05T19:24:45.594Z,16.60
2022-09-05T19:28:02.796Z,3.72
2022-09-05T19:36:46.395Z,10.60
2022-09-05T19:36:50.206Z,3.87
2022-09-05T19:37:15.103Z,11.90
2022-09-05T19:37:42.637Z,16.82
2022-09-05T19:43:01.215Z,4.20
2022-09-05T19:47:31.387Z,3.52
2022-09-05T19:47:42.047Z,3.12
2022-09-05T19:48:29.009Z,2.80
2022-09-05T19:51:17.155Z,10.65
2022-09-05T19:54:03.932Z,11.83
2022-09-05T19:56:30.288Z,7.05
2022-09-05T19:59:19.573Z,6.85
2022-09-05T20:01:53.425Z,10.50
2022-09-05T20:04:27.835Z,4.72
2022-09-05T20:07:01.603Z,2.25
2022-09-05T20:09:35.545Z,1.85
2022-09-05T20:12:09.926Z,1.57
2022-09-05T20:14:43.182Z,1.45
2022-09-05T20:17:31.648Z,1.45
2022-09-05T20:20:30.689Z,1.87
2022-09-05T20:23:06.444Z,6.58
2022-09-05T20:25:48.122Z,3.58
2022-09-05T20:28:29.055Z,2.33
2022-09-05T20:31:08.751Z,1.50
2022-09-05T20:34:32.231Z,1.50
2022-09-05T20:43:11.040Z,1.65
2022-09-05T20:43:14.981Z,1.55
2022-09-05T20:43:22.629Z,1.80
2022-09-05T20:45:03.060Z,1.82
2022-09-05T20:54:08.016Z,1.72
2022-09-05T20:54:16.977Z,1.42
2022-09-05T20:54:27.553Z,1.60
2022-09-05T20:55:42.331Z,1.42
2022-09-05T20:58:31.137Z,1.57
2022-09-05T21:01:21.947Z,1.57
2022-09-05T21:04:03.252Z,1.45
2022-09-05T21:06:37.520Z,1.25
2022-09-05T21:09:25.457Z,1.55
2022-09-05T21:11:59.171Z,1.27
2022-09-05T21:14:33.353Z,1.27
2022-09-05T21:17:14.977Z,1.57
2022-09-05T21:19:41.952Z,1.00
2022-09-05T21:22:24.878Z,2.00
2022-09-05T21:25:17.837Z,1.40
2022-09-05T21:28:10.129Z,1.70
2022-09-05T21:30:46.689Z,1.70
2022-09-05T21:33:29.448Z,1.17
2022-09-05T21:36:02.761Z,1.40
2022-09-05T21:38:43.761Z,1.30
2022-09-05T21:41:17.516Z,1.27
2022-09-05T21:47:33.786Z,1.70
2022-09-05T21:47:40.905Z,1.07
2022-09-05T21:49:10.418Z,1.47
2022-09-05T21:51:48.188Z,1.40
2022-09-05T21:59:13.735Z,1.12
2022-09-05T21:59:30.075Z,1.30
2022-09-05T21:59:45.310Z,1.32
2022-09-05T22:02:11.679Z,1.27
2022-09-05T22:04:44.700Z,1.40
2022-09-05T22:07:27.944Z,1.27
2022-09-05T22:10:06.228Z,1.35
2022-09-05T22:12:41.960Z,1.50
2022-09-05T22:20:24.068Z,1.30
2022-09-05T22:22:57.143Z,1.50
2022-09-05T22:25:33.717Z,1.62
2022-09-05T22:28:19.940Z,1.72
2022-09-05T22:30:53.185Z,1.77
2022-09-05T22:33:26.473Z,1.65
2022-09-05T22:35:59.646Z,1.60
2022-09-05T22:38:34.731Z,1.77
2022-09-05T22:41:09.000Z,1.60
2022-09-05T22:43:43.676Z,1.60
2022-09-05T22:46:17.930Z,1.52
2022-09-05T22:48:51.083Z,1.60
2022-09-05T22:51:24.279Z,1.37
2022-09-05T22:53:58.036Z,1.30
2022-09-05T22:56:38.513Z,1.82
2022-09-05T22:59:13.065Z,1.60
2022-09-05T23:01:46.717Z,1.52
2022-09-05T23:04:20.120Z,1.57
2022-09-05T23:06:53.358Z,1.50
2022-09-05T23:09:45.924Z,1.45
2022-09-05T23:12:20.422Z,1.75
2022-09-05T23:14:53.642Z,1.52
2022-09-05T23:17:26.821Z,1.40
2022-09-05T23:19:59.855Z,1.50
2022-09-05T23:22:33.140Z,1.65
2022-09-05T23:25:07.954Z,1.50
2022-09-05T23:27:42.622Z,1.70
2022-09-05T23:30:16.830Z,1.57
2022-09-05T23:32:52.120Z,1.98
2022-09-05T23:35:25.217Z,1.30
2022-09-05T23:37:58.664Z,1.60
2022-09-05T23:40:32.797Z,1.75
2022-09-05T23:43:06.225Z,2.08
2022-09-05T23:45:40.444Z,1.70
2022-09-05T23:48:13.611Z,1.55
2022-09-05T23:50:46.734Z,2.05
2022-09-05T23:53:20.217Z,1.70
2022-09-05T23:55:53.313Z,1.77
2022-09-05T23:58:29.824Z,1.50
